Time;durP1;ratioP1;P1;durP2;ratioP2;P2;SDS_P1;SDS_P2;PMS_P1;PMS_P2;Temp;Humidity;BMP_temperature;BMP_pressure;BME280_temperature;BME280_humidity;BME280_pressure;Samples;Min_cycle;Max_cycle;Signal;HPM_P1;HPM_P2
2023/12/27 00:00:25;;;;;;;10.18;5.43;;;;;;;18.47;66.23;102089.69;5002400;28;20502;-36
2023/12/27 00:02:51;;;;;;;11.15;5.60;;;;;;;18.46;66.07;102094.38;4998943;28;20406;-36
2023/12/27 00:05:16;;;;;;;10.07;5.82;;;;;;;18.46;66.14;102090.81;5010566;28;20148;-38
2023/12/27 00:07:41;;;;;;;7.45;5.03;;;;;;;18.43;66.32;102092.97;5008351;28;20045;-36
2023/12/27 00:10:07;;;;;;;9.07;5.10;;;;;;;18.42;66.23;102091.28;5002526;28;20104;-36
2023/12/27 00:12:33;;;;;;;7.95;5.22;;;;;;;18.40;66.37;102076.97;4983895;28;20057;-37
2023/12/27 00:14:58;;;;;;;8.90;5.70;;;;;;;18.39;66.44;102088.22;5001606;28;20029;-36
2023/12/27 00:17:23;;;;;;;7.78;5.30;;;;;;;18.39;66.36;102090.97;5001563;28;20033;-38
2023/12/27 00:19:49;;;;;;;10.57;5.85;;;;;;;18.37;66.34;102082.97;5001491;28;20124;-38
2023/12/27 00:22:15;;;;;;;8.77;5.53;;;;;;;18.36;66.33;102078.56;4999687;28;20033;-38
2023/12/27 00:24:41;;;;;;;8.43;5.63;;;;;;;18.35;66.38;102082.38;5001890;28;20022;-36
2023/12/27 00:27:06;;;;;;;9.80;5.00;;;;;;;18.35;66.75;102078.81;5001265;28;20521;-36
2023/12/27 00:29:31;;;;;;;10.95;5.43;;;;;;;18.34;66.66;102071.66;4998964;28;20140;-36
2023/12/27 00:31:57;;;;;;;11.23;5.82;;;;;;;18.32;66.63;102071.06;4985741;28;20052;-36
2023/12/27 00:34:22;;;;;;;9.50;5.35;;;;;;;18.32;66.62;102071.94;4988940;28;20028;-36
2023/12/27 00:36:48;;;;;;;8.35;4.93;;;;;;;18.32;66.62;102071.94;4994952;28;20030;-38
2023/12/27 00:39:13;;;;;;;10.10;5.13;;;;;;;18.32;66.94;102079.31;4993233;28;20065;-36
2023/12/27 00:41:39;;;;;;;10.15;5.63;;;;;;;18.31;66.69;102075.75;4989442;28;20037;-38
2023/12/27 00:44:04;;;;;;;9.80;5.18;;;;;;;18.31;66.60;102083.97;4992271;28;20034;-37
2023/12/27 00:46:29;;;;;;;10.18;4.70;;;;;;;18.30;66.97;102086.97;4990551;28;20034;-38
2023/12/27 00:48:55;;;;;;;8.38;5.20;;;;;;;18.30;66.80;102074.06;4996487;28;20033;-36
2023/12/27 00:51:20;;;;;;;9.75;5.75;;;;;;;18.29;66.87;102075.16;4990118;28;20037;-37
2023/12/27 00:53:45;;;;;;;8.25;4.93;;;;;;;18.27;67.07;102064.44;4997276;28;20551;-37
2023/12/27 00:56:11;;;;;;;9.82;5.35;;;;;;;18.27;67.20;102077.31;4989031;28;20039;-35
2023/12/27 00:58:36;;;;;;;7.28;4.68;;;;;;;18.25;67.21;102063.84;4990837;28;20541;-35
2023/12/27 01:01:02;;;;;;;12.85;4.90;;;;;;;18.24;67.12;102053.13;4989848;28;20042;-37
2023/12/27 01:03:27;;;;;;;7.57;4.55;;;;;;;18.21;67.28;102059.94;4990356;28;20124;-37
2023/12/27 01:05:53;;;;;;;7.72;4.88;;;;;;;18.21;67.31;102056.34;4987898;28;20035;-38
2023/12/27 01:08:18;;;;;;;8.85;4.47;;;;;;;18.20;67.35;102051.97;4977608;28;20037;-36
2023/12/27 01:10:43;;;;;;;7.55;4.60;;;;;;;18.18;67.25;102054.94;4992491;28;20044;-38
2023/12/27 01:13:09;;;;;;;8.48;5.00;;;;;;;18.17;67.25;102049.72;4994554;28;20498;-37
2023/12/27 01:15:34;;;;;;;9.02;4.88;;;;;;;18.16;67.18;102059.88;4992227;28;20311;-38
2023/12/27 01:18:00;;;;;;;7.60;5.10;;;;;;;18.14;67.40;102053.78;4976340;28;20026;-38
2023/12/27 01:20:25;;;;;;;8.27;4.68;;;;;;;18.14;67.23;102064.75;4996374;28;20262;-37
2023/12/27 01:22:50;;;;;;;8.50;5.03;;;;;;;18.13;67.55;102060.34;4995467;28;20065;-37
2023/12/27 01:25:16;;;;;;;8.35;4.53;;;;;;;18.12;67.66;102055.94;4995653;28;20227;-38
2023/12/27 01:27:41;;;;;;;9.63;5.07;;;;;;;18.10;67.67;102069.09;4984185;28;20117;-38
2023/12/27 01:30:07;;;;;;;6.18;4.82;;;;;;;18.09;67.79;102068.25;5002896;28;20415;-38
2023/12/27 01:32:32;;;;;;;7.28;4.47;;;;;;;18.08;67.74;102065.75;5009190;28;20033;-38
2023/12/27 01:34:58;;;;;;;8.60;4.82;;;;;;;18.07;67.45;102067.66;5007641;28;20030;-38
2023/12/27 01:37:23;;;;;;;10.52;5.00;;;;;;;18.07;67.73;102061.34;5010117;28;20124;-38
2023/12/27 01:39:48;;;;;;;8.32;4.90;;;;;;;18.06;67.62;102067.91;5007720;28;20025;-38
2023/12/27 01:42:14;;;;;;;10.38;4.80;;;;;;;18.04;67.71;102054.44;5008633;28;20498;-38
2023/12/27 01:44:39;;;;;;;7.70;4.45;;;;;;;18.05;67.41;102060.75;5007135;28;20701;-38
2023/12/27 01:47:05;;;;;;;12.07;4.88;;;;;;;18.02;67.69;102059.34;4991307;28;20052;-36
2023/12/27 01:49:31;;;;;;;8.18;4.80;;;;;;;18.02;67.70;102051.09;5011831;28;20604;-38
2023/12/27 01:51:56;;;;;;;7.45;4.50;;;;;;;18.03;67.75;102054.69;5013624;28;20033;-38
2023/12/27 01:54:22;;;;;;;7.63;4.60;;;;;;;18.01;67.98;102051.34;5021496;28;20038;-37
2023/12/27 01:56:47;;;;;;;9.15;4.68;;;;;;;18.00;68.07;102042.31;5008000;28;20461;-37
2023/12/27 01:59:13;;;;;;;7.88;4.60;;;;;;;17.98;67.71;102030.75;5006844;28;20021;-36
2023/12/27 02:01:38;;;;;;;9.13;4.95;;;;;;;17.98;67.84;102041.72;4994430;28;20022;-36
2023/12/27 02:04:04;;;;;;;8.75;4.80;;;;;;;17.96;67.70;102041.97;5013378;28;20464;-38
2023/12/27 02:06:29;;;;;;;9.57;4.95;;;;;;;17.97;67.75;102040.03;5010885;28;20040;-36
2023/12/27 02:08:55;;;;;;;8.25;4.25;;;;;;;17.95;67.84;102045.78;5006047;28;20034;-39
2023/12/27 02:11:20;;;;;;;8.02;4.68;;;;;;;17.95;67.75;102061.41;4995580;28;20108;-38
2023/12/27 02:13:46;;;;;;;8.98;4.60;;;;;;;17.94;67.69;102051.50;5014408;28;20262;-37
2023/12/27 02:16:11;;;;;;;7.35;4.68;;;;;;;17.92;67.85;102051.72;4994216;28;20029;-36
2023/12/27 02:18:37;;;;;;;9.23;4.40;;;;;;;17.92;67.86;102053.66;5009083;28;20483;-37
2023/12/27 02:21:03;;;;;;;7.55;4.35;;;;;;;17.91;68.04;102052.78;5005468;28;20376;-37
2023/12/27 02:23:29;;;;;;;7.38;4.55;;;;;;;17.91;68.20;102038.25;4989426;28;20378;-37
2023/12/27 02:25:54;;;;;;;7.80;4.45;;;;;;;17.90;67.93;102040.19;4994743;28;20057;-37
2023/12/27 02:28:20;;;;;;;5.82;3.92;;;;;;;17.90;68.09;102048.41;4989423;28;20544;-35
2023/12/27 02:30:45;;;;;;;8.00;4.47;;;;;;;17.88;68.07;102036.84;5008570;28;20549;-36
2023/12/27 02:33:11;;;;;;;7.93;4.22;;;;;;;17.89;68.16;102040.41;4991093;28;20030;-38
2023/12/27 02:35:36;;;;;;;6.72;4.38;;;;;;;17.88;67.85;102034.09;4980795;28;20236;-37
2023/12/27 02:38:01;;;;;;;8.70;4.10;;;;;;;17.87;68.04;102026.97;4991477;28;20025;-38
2023/12/27 02:40:27;;;;;;;8.80;4.22;;;;;;;17.85;68.15;102020.88;5004156;28;20034;-36
2023/12/27 02:42:52;;;;;;;8.23;4.50;;;;;;;17.85;67.93;102015.38;5002865;28;20570;-37
2023/12/27 02:45:18;;;;;;;8.05;4.22;;;;;;;17.85;68.04;102014.56;4984462;28;20561;-35
2023/12/27 02:47:43;;;;;;;8.60;4.28;;;;;;;17.84;68.10;102007.41;5003128;28;20026;-37
2023/12/27 02:50:08;;;;;;;7.22;3.95;;;;;;;17.82;68.11;101999.44;5004628;28;20036;-36
2023/12/27 02:52:34;;;;;;;7.22;4.30;;;;;;;17.82;68.22;102002.19;5002974;28;20635;-35
2023/12/27 02:54:59;;;;;;;5.88;3.90;;;;;;;17.81;68.30;101993.09;5012183;28;20072;-36
2023/12/27 02:57:25;;;;;;;6.32;4.00;;;;;;;17.80;68.04;101982.41;5002522;28;20029;-36
2023/12/27 02:59:50;;;;;;;6.55;3.70;;;;;;;17.80;68.12;101988.72;4993451;28;20050;-36
2023/12/27 03:02:15;;;;;;;7.70;4.03;;;;;;;17.80;68.06;101985.13;5002631;28;20026;-38
2023/12/27 03:04:41;;;;;;;6.53;3.72;;;;;;;17.79;68.13;101972.50;5003030;28;20087;-36
2023/12/27 03:07:07;;;;;;;9.07;4.53;;;;;;;17.78;68.15;101968.09;5010107;28;20542;-35
2023/12/27 03:09:33;;;;;;;7.30;3.97;;;;;;;17.78;68.36;101976.31;5001704;28;20054;-36
2023/12/27 03:11:59;;;;;;;8.48;4.45;;;;;;;17.76;68.32;101960.13;5002947;28;20595;-37
2023/12/27 03:14:25;;;;;;;8.05;4.47;;;;;;;17.75;68.10;101963.13;5003499;28;20518;-37
2023/12/27 03:16:51;;;;;;;7.03;4.10;;;;;;;17.73;68.24;101952.41;5002520;28;20029;-38
2023/12/27 03:19:16;;;;;;;7.00;3.80;;;;;;;17.75;68.15;101946.66;5003556;28;20030;-37
2023/12/27 03:21:42;;;;;;;6.80;4.03;;;;;;;17.74;68.20;101950.47;5007208;28;20040;-38
2023/12/27 03:24:07;;;;;;;6.75;4.38;;;;;;;17.73;68.26;101944.19;5001425;28;20084;-37
2023/12/27 03:26:32;;;;;;;8.90;4.03;;;;;;;17.73;68.39;101944.19;5005320;28;20032;-36
2023/12/27 03:28:58;;;;;;;8.13;3.95;;;;;;;17.71;68.32;101935.38;5003712;28;20022;-35
2023/12/27 03:31:28;;;;;;;8.48;3.95;;;;;;;17.71;68.36;101923.59;5001723;28;20089;-36
2023/12/27 03:33:55;;;;;;;7.97;4.10;;;;;;;17.70;68.47;101930.97;5002888;28;20402;-36
2023/12/27 03:36:20;;;;;;;7.38;4.13;;;;;;;17.69;68.40;101912.03;4996772;28;20534;-36
2023/12/27 03:38:46;;;;;;;7.28;4.10;;;;;;;17.69;68.35;101912.84;4985848;28;20030;-36
2023/12/27 03:41:11;;;;;;;6.72;3.67;;;;;;;17.69;68.29;101915.59;4995470;28;20030;-36
2023/12/27 03:43:37;;;;;;;6.90;3.92;;;;;;;17.67;68.29;101909.53;5003708;28;20018;-36
2023/12/27 03:46:02;;;;;;;9.32;4.22;;;;;;;17.66;68.62;101905.13;5002621;28;20413;-36
2023/12/27 03:48:28;;;;;;;7.90;4.07;;;;;;;17.66;68.53;101902.38;4986511;28;20030;-36
2023/12/27 03:50:53;;;;;;;10.43;4.00;;;;;;;17.65;68.60;101900.72;4983445;28;20032;-36
2023/12/27 03:53:19;;;;;;;7.40;3.90;;;;;;;17.66;68.38;101888.69;5002710;28;20032;-36
2023/12/27 03:55:44;;;;;;;6.00;3.58;;;;;;;17.65;68.59;101887.84;4995905;28;20064;-37
2023/12/27 03:58:09;;;;;;;6.72;3.70;;;;;;;17.65;68.68;101884.28;5000684;28;20067;-37
2023/12/27 04:00:35;;;;;;;7.07;4.05;;;;;;;17.65;68.57;101876.03;5007820;28;20021;-35
2023/12/27 04:03:00;;;;;;;6.47;3.78;;;;;;;17.65;68.55;101876.03;5003109;28;20109;-36
2023/12/27 04:05:26;;;;;;;8.85;3.75;;;;;;;17.64;68.69;101871.63;5001276;28;20076;-36
2023/12/27 04:07:51;;;;;;;9.27;4.05;;;;;;;17.63;68.65;101865.34;4984129;28;20097;-38
2023/12/27 04:10:17;;;;;;;8.23;3.90;;;;;;;17.63;68.65;101865.34;5001560;28;20509;-38
2023/12/27 04:12:43;;;;;;;9.23;4.05;;;;;;;17.63;68.69;101853.53;5002316;28;20037;-38
2023/12/27 04:15:08;;;;;;;8.05;4.00;;;;;;;17.62;68.90;101844.47;5003504;28;20033;-38
2023/12/27 04:17:34;;;;;;;7.40;3.65;;;;;;;17.63;68.71;101848.03;5005925;28;20040;-38
2023/12/27 04:19:59;;;;;;;6.55;3.70;;;;;;;17.62;68.81;101846.38;5004608;28;20091;-38
2023/12/27 04:22:25;;;;;;;7.18;3.75;;;;;;;17.61;68.94;101839.25;4999090;28;20744;-37
2023/12/27 04:24:50;;;;;;;6.50;3.65;;;;;;;17.60;69.03;101830.19;5002878;28;20108;-37
2023/12/27 04:27:15;;;;;;;6.15;3.55;;;;;;;17.60;68.87;101829.38;4999402;28;20022;-37
2023/12/27 04:29:41;;;;;;;6.63;3.63;;;;;;;17.58;68.62;101835.09;4999714;28;20038;-37
2023/12/27 04:32:06;;;;;;;6.50;3.38;;;;;;;17.59;69.07;101830.44;4997513;28;20105;-36
2023/12/27 04:34:32;;;;;;;5.40;3.50;;;;;;;17.58;68.86;101835.09;4979477;28;20254;-36
2023/12/27 04:36:57;;;;;;;6.78;3.55;;;;;;;17.57;68.98;101832.59;5003279;28;20359;-39
2023/12/27 04:39:22;;;;;;;9.95;3.75;;;;;;;17.58;69.07;101834.25;5002866;28;20029;-37
2023/12/27 04:41:48;;;;;;;8.40;3.92;;;;;;;17.55;69.07;101824.63;5002189;28;20063;-36
2023/12/27 04:44:13;;;;;;;8.23;3.72;;;;;;;17.56;69.06;101823.56;5000755;28;20026;-35
2023/12/27 04:46:39;;;;;;;5.97;3.55;;;;;;;17.54;68.92;101820.22;5000829;28;20060;-38
2023/12/27 04:49:04;;;;;;;7.10;3.63;;;;;;;17.54;68.83;101822.16;5002468;28;20061;-36
2023/12/27 04:51:30;;;;;;;6.28;3.30;;;;;;;17.55;69.17;101815.59;4999379;28;20390;-36
2023/12/27 04:53:56;;;;;;;8.93;3.92;;;;;;;17.52;68.86;101814.16;4985102;28;20034;-36
2023/12/27 04:56:21;;;;;;;7.38;3.83;;;;;;;17.53;69.07;101807.59;5000088;28;20109;-36
2023/12/27 04:58:47;;;;;;;7.10;3.85;;;;;;;17.53;69.29;101801.28;4994241;28;20136;-37
2023/12/27 05:01:15;;;;;;;6.88;3.85;;;;;;;17.51;69.04;101787.00;5015289;28;20061;-36
2023/12/27 05:03:40;;;;;;;6.60;3.63;;;;;;;17.52;69.27;101784.00;4990909;28;20539;-36
2023/12/27 05:06:09;;;;;;;6.80;3.30;;;;;;;17.54;69.08;101784.59;5002871;28;20061;-36
2023/12/27 05:08:34;;;;;;;7.57;3.45;;;;;;;17.58;69.25;101779.44;5001994;28;20372;-37
2023/12/27 05:11:00;;;;;;;7.78;3.10;;;;;;;17.63;69.06;101779.50;5001713;28;20057;-36
2023/12/27 05:13:26;;;;;;;6.82;3.38;;;;;;;17.69;68.93;101781.25;4996476;28;20037;-37
2023/12/27 05:15:51;;;;;;;6.85;3.47;;;;;;;17.77;68.90;101769.03;5001792;28;20399;-38
2023/12/27 05:18:16;;;;;;;5.95;3.10;;;;;;;17.83;68.84;101768.03;5000654;28;20033;-38
2023/12/27 05:20:42;;;;;;;5.93;3.35;;;;;;;17.90;68.67;101760.44;4999268;28;20132;-38
2023/12/27 05:23:07;;;;;;;5.38;3.45;;;;;;;17.98;68.66;101758.34;4999590;28;20033;-38
2023/12/27 05:25:33;;;;;;;8.35;3.72;;;;;;;18.06;68.35;101763.41;4989226;28;20491;-38
2023/12/27 05:27:58;;;;;;;6.20;3.30;;;;;;;18.15;68.52;101755.53;4984479;28;20029;-38
2023/12/27 05:30:23;;;;;;;6.50;3.15;;;;;;;18.23;68.61;101757.84;4999641;28;20046;-37
2023/12/27 05:32:49;;;;;;;9.82;3.65;;;;;;;18.32;68.50;101752.72;5011696;28;20038;-36
2023/12/27 05:35:14;;;;;;;7.47;3.40;;;;;;;18.41;68.53;101760.25;4997387;28;20429;-38
2023/12/27 05:37:40;;;;;;;7.00;3.28;;;;;;;18.53;68.36;101756.56;4982571;28;20386;-38
2023/12/27 05:40:06;;;;;;;8.00;3.25;;;;;;;18.62;68.04;101754.16;4983283;28;20030;-36
2023/12/27 05:42:31;;;;;;;6.22;3.10;;;;;;;18.73;67.99;101761.41;5000419;28;20399;-37
2023/12/27 05:44:56;;;;;;;8.48;3.33;;;;;;;18.83;67.78;101744.19;4998593;28;20026;-39
2023/12/27 05:47:22;;;;;;;6.80;3.28;;;;;;;18.92;67.41;101742.69;4999302;28;20033;-38
2023/12/27 05:49:48;;;;;;;7.72;3.13;;;;;;;19.02;67.49;101741.94;5001605;28;20032;-39
2023/12/27 05:52:13;;;;;;;5.85;3.15;;;;;;;19.09;67.24;101739.78;5000585;28;20026;-38
2023/12/27 05:54:39;;;;;;;6.22;2.92;;;;;;;19.14;67.11;101742.59;5006174;28;20025;-37
2023/12/27 05:57:04;;;;;;;4.70;2.88;;;;;;;19.17;67.19;101738.47;4985809;28;20510;-36
2023/12/27 05:59:29;;;;;;;6.65;3.42;;;;;;;19.19;67.15;101733.53;4999058;28;20030;-37
2023/12/27 06:01:55;;;;;;;6.22;3.72;;;;;;;19.19;66.76;101736.28;4982432;28;20022;-38
2023/12/27 06:04:21;;;;;;;6.05;2.78;;;;;;;19.18;66.75;101735.47;5002461;28;20058;-38
2023/12/27 06:06:49;;;;;;;7.47;3.40;;;;;;;19.16;66.89;101729.38;5001746;28;20521;-36
2023/12/27 06:09:18;;;;;;;6.05;3.15;;;;;;;19.16;66.88;101721.16;4991484;28;20239;-36
2023/12/27 06:11:43;;;;;;;8.68;3.17;;;;;;;19.13;66.66;101716.19;4998792;28;20029;-36
2023/12/27 06:14:09;;;;;;;4.30;3.03;;;;;;;19.11;66.98;101701.06;5008033;28;20034;-37
2023/12/27 06:16:34;;;;;;;6.72;3.00;;;;;;;19.07;66.91;101698.84;5002869;28;20040;-36
2023/12/27 06:19:00;;;;;;;7.38;3.08;;;;;;;19.08;66.89;101699.69;4992217;28;20025;-38
2023/12/27 06:21:25;;;;;;;7.03;3.13;;;;;;;19.07;66.76;101687.84;4988223;28;20087;-38
2023/12/27 06:23:51;;;;;;;6.47;3.50;;;;;;;19.05;66.81;101673.53;5004175;28;20262;-38
2023/12/27 06:26:16;;;;;;;7.05;3.10;;;;;;;19.05;67.11;101672.72;5004181;28;20382;-39
2023/12/27 06:28:43;;;;;;;6.40;3.00;;;;;;;19.02;66.92;101668.56;5003073;28;20021;-39
2023/12/27 06:31:08;;;;;;;6.85;3.10;;;;;;;18.98;66.76;101652.88;5005422;28;20042;-39
2023/12/27 06:33:34;;;;;;;4.22;2.67;;;;;;;18.97;66.79;101652.06;5003908;28;20029;-36
2023/12/27 06:35:59;;;;;;;7.20;3.20;;;;;;;18.95;66.90;101648.75;5006109;28;20651;-36
2023/12/27 06:38:25;;;;;;;5.75;2.80;;;;;;;18.94;67.16;101644.34;5003741;28;20060;-36
2023/12/27 06:40:50;;;;;;;8.98;3.63;;;;;;;18.92;66.98;101638.31;5007270;28;20097;-36
2023/12/27 06:43:15;;;;;;;5.00;2.88;;;;;;;18.92;67.12;101636.38;5000890;28;20390;-36
2023/12/27 06:45:41;;;;;;;7.55;3.00;;;;;;;18.92;67.06;101633.63;5003772;28;20049;-36
2023/12/27 06:48:06;;;;;;;5.80;2.70;;;;;;;18.92;67.41;101625.38;4999086;28;20077;-37
2023/12/27 06:50:32;;;;;;;6.72;2.88;;;;;;;18.94;67.14;101622.38;5002300;28;20030;-36
2023/12/27 06:52:57;;;;;;;6.45;2.92;;;;;;;18.94;67.27;101627.03;4984053;28;20072;-37
2023/12/27 06:55:23;;;;;;;5.55;2.85;;;;;;;18.95;67.26;101626.78;5003318;28;20073;-36
2023/12/27 06:57:48;;;;;;;5.40;2.80;;;;;;;18.96;67.14;101625.69;4993053;28;20603;-36
2023/12/27 07:00:14;;;;;;;6.65;3.00;;;;;;;18.98;67.35;101628.16;5002943;28;20096;-37
2023/12/27 07:02:40;;;;;;;7.82;3.22;;;;;;;19.00;67.39;101620.50;5002265;28;20146;-37
2023/12/27 07:05:06;;;;;;;8.20;3.03;;;;;;;19.01;67.14;101614.72;4983635;28;20032;-39
2023/12/27 07:07:32;;;;;;;6.35;3.25;;;;;;;19.02;67.38;101613.63;5001839;28;20057;-38
2023/12/27 07:09:57;;;;;;;7.85;3.13;;;;;;;19.02;67.17;101610.06;5007413;28;20060;-36
2023/12/27 07:12:23;;;;;;;5.15;2.88;;;;;;;19.02;67.05;101607.31;5000824;28;20026;-37
2023/12/27 07:14:49;;;;;;;6.85;2.95;;;;;;;19.01;67.17;101614.72;5000317;28;20029;-36
2023/12/27 07:17:15;;;;;;;9.95;3.20;;;;;;;18.99;67.18;101607.84;5001350;28;20029;-36
2023/12/27 07:19:40;;;;;;;5.55;2.88;;;;;;;18.98;67.46;101606.19;4998182;28;20228;-36
2023/12/27 07:22:06;;;;;;;5.47;2.60;;;;;;;18.96;67.18;101603.72;5002714;28;20498;-36
2023/12/27 07:24:31;;;;;;;7.43;2.70;;;;;;;18.93;67.09;101598.72;4982976;28;20112;-36
2023/12/27 07:26:56;;;;;;;5.63;3.05;;;;;;;18.92;67.17;101595.16;4984403;28;20032;-36
2023/12/27 07:29:22;;;;;;;6.93;2.88;;;;;;;18.92;67.40;101597.09;5004920;28;20025;-39
2023/12/27 07:31:47;;;;;;;6.00;2.63;;;;;;;18.90;67.33;101588.25;4999594;28;20135;-36
2023/12/27 07:34:15;;;;;;;6.28;2.95;;;;;;;18.90;67.48;101588.25;5000449;28;20030;-39
2023/12/27 07:36:40;;;;;;;4.75;2.55;;;;;;;18.87;67.51;101581.38;5004596;28;20053;-36
2023/12/27 07:39:06;;;;;;;5.20;2.40;;;;;;;18.87;67.48;101575.88;5000752;28;20161;-38
2023/12/27 07:41:32;;;;;;;5.05;2.60;;;;;;;18.85;67.32;101578.06;5000794;28;20133;-38
2023/12/27 07:43:57;;;;;;;4.55;2.47;;;;;;;18.84;67.61;101581.88;5010852;28;20033;-38
2023/12/27 07:46:23;;;;;;;5.93;2.80;;;;;;;18.82;67.55;101586.00;5002933;28;20014;-36
2023/12/27 07:48:49;;;;;;;4.93;2.50;;;;;;;18.80;67.50;101583.53;4998005;28;20021;-38
2023/12/27 07:51:15;;;;;;;4.40;2.70;;;;;;;18.79;67.57;101576.38;4988724;28;20489;-38
2023/12/27 07:53:40;;;;;;;5.82;2.58;;;;;;;18.78;67.45;101566.47;5002457;28;20137;-36
2023/12/27 07:56:12;;;;;;;5.15;2.45;;;;;;;18.75;67.52;101569.75;5001209;28;20034;-36
2023/12/27 07:58:37;;;;;;;3.28;2.00;;;;;;;18.74;67.64;101562.63;5012386;28;20030;-38
2023/12/27 08:01:03;;;;;;;4.57;2.53;;;;;;;18.73;67.61;101553.53;5000872;28;20555;-37
2023/12/27 08:03:28;;;;;;;3.90;2.28;;;;;;;18.72;67.71;101549.16;4994764;28;20425;-38
2023/12/27 08:05:54;;;;;;;4.32;2.10;;;;;;;18.73;67.59;101547.22;5007519;28;20014;-38
2023/12/27 08:08:19;;;;;;;3.42;2.03;;;;;;;18.71;67.76;101544.75;5003041;28;20042;-38
2023/12/27 08:10:44;;;;;;;5.65;1.98;;;;;;;18.73;67.74;101541.72;4999862;28;20526;-37
2023/12/27 08:13:10;;;;;;;6.82;2.22;;;;;;;18.74;67.80;101535.16;5000832;28;20030;-35
2023/12/27 08:15:35;;;;;;;3.08;1.77;;;;;;;18.74;67.82;101533.22;5002259;28;20033;-37
2023/12/27 08:18:03;;;;;;;2.97;1.88;;;;;;;18.75;67.73;101525.81;4998127;28;20838;-37
2023/12/27 08:20:29;;;;;;;3.58;2.10;;;;;;;18.75;68.05;101512.91;4983180;28;20034;-36
2023/12/27 08:22:55;;;;;;;3.08;1.80;;;;;;;18.74;68.01;101511.25;4998803;28;20221;-37
2023/12/27 08:25:20;;;;;;;3.15;1.90;;;;;;;18.74;67.73;101518.69;5000656;28;20026;-39
2023/12/27 08:27:45;;;;;;;3.83;2.33;;;;;;;18.75;68.00;101512.09;5000144;28;20029;-38
2023/12/27 08:30:11;;;;;;;2.30;1.70;;;;;;;18.74;68.10;101504.94;4999812;28;20490;-38
2023/12/27 08:32:37;;;;;;;6.57;2.13;;;;;;;18.72;68.12;101502.47;5004457;28;20032;-37
2023/12/27 08:35:02;;;;;;;3.45;1.92;;;;;;;18.72;68.13;101494.25;5003310;28;20030;-37
2023/12/27 08:37:28;;;;;;;5.00;1.80;;;;;;;18.72;68.19;101507.97;5001136;28;20120;-37
2023/12/27 08:39:53;;;;;;;3.75;1.70;;;;;;;18.71;68.29;101509.06;4991083;28;20055;-38
2023/12/27 08:42:18;;;;;;;1.83;1.50;;;;;;;18.71;68.27;101494.47;4998535;28;20053;-38
2023/12/27 08:44:44;;;;;;;2.42;1.73;;;;;;;18.71;68.19;101481.59;4987063;28;20105;-38
2023/12/27 08:47:09;;;;;;;2.78;1.80;;;;;;;18.71;68.32;101462.38;5000121;28;20053;-36
2023/12/27 08:49:34;;;;;;;2.83;1.70;;;;;;;18.72;68.34;101469.53;5001467;28;20026;-35
2023/12/27 08:52:00;;;;;;;2.55;1.45;;;;;;;18.72;68.33;101475.03;5002062;28;20021;-38
2023/12/27 08:54:25;;;;;;;3.45;1.77;;;;;;;18.72;68.31;101480.50;5003215;28;20030;-37
2023/12/27 08:56:51;;;;;;;2.30;1.77;;;;;;;18.71;68.28;101467.88;4984984;28;20747;-40
2023/12/27 08:59:16;;;;;;;2.58;1.60;;;;;;;18.72;68.16;101460.44;5006092;28;20176;-36
2023/12/27 09:01:42;;;;;;;3.88;1.92;;;;;;;18.71;68.26;101459.63;5000114;28;20075;-38
2023/12/27 09:04:07;;;;;;;2.38;1.80;;;;;;;18.69;68.44;101458.25;5000367;28;20037;-38
2023/12/27 09:06:33;;;;;;;4.22;1.80;;;;;;;18.71;68.33;101456.03;4999149;28;20026;-39
2023/12/27 09:08:58;;;;;;;2.40;1.83;;;;;;;18.68;68.53;101446.41;5005591;28;20037;-38
2023/12/27 09:11:23;;;;;;;3.00;1.63;;;;;;;18.69;68.41;101455.50;4999179;28;20551;-38
2023/12/27 09:13:49;;;;;;;3.20;1.70;;;;;;;18.69;68.47;101450.00;5000307;28;20034;-38
2023/12/27 09:16:14;;;;;;;2.90;1.88;;;;;;;18.66;68.46;101451.34;4988310;28;20415;-37
2023/12/27 09:18:40;;;;;;;2.13;1.45;;;;;;;18.66;68.53;101459.56;5001312;28;20034;-35
2023/12/27 09:21:06;;;;;;;1.63;1.50;;;;;;;18.66;68.84;101458.78;5000936;28;20109;-38
2023/12/27 09:23:31;;;;;;;1.98;1.55;;;;;;;18.64;68.69;101445.31;5001205;28;20168;-38
2023/12/27 09:25:57;;;;;;;1.40;1.30;;;;;;;18.64;68.76;101445.31;4991939;28;20535;-36
2023/12/27 09:28:25;;;;;;;2.42;1.70;;;;;;;18.65;68.64;101432.41;5002225;28;20568;-36
2023/12/27 09:30:51;;;;;;;2.47;1.70;;;;;;;18.64;68.94;101414.28;5000653;28;20053;-36
2023/12/27 09:33:16;;;;;;;1.88;1.67;;;;;;;18.63;68.89;101424.44;4999672;28;20040;-36
2023/12/27 09:35:41;;;;;;;2.40;1.60;;;;;;;18.65;69.09;101413.19;4981953;28;20105;-38
2023/12/27 09:38:07;;;;;;;1.73;1.60;;;;;;;18.65;69.00;101414.03;5006565;28;20057;-35
2023/12/27 09:40:33;;;;;;;1.88;1.52;;;;;;;18.66;68.88;101407.41;5002011;28;20102;-38
2023/12/27 09:42:58;;;;;;;1.80;1.63;;;;;;;18.67;69.16;101413.75;5005348;28;20018;-38
2023/12/27 09:45:24;;;;;;;2.45;1.60;;;;;;;18.67;69.08;101409.06;4992489;28;20344;-37
2023/12/27 09:47:53;;;;;;;2.78;1.83;;;;;;;18.67;69.07;101403.59;4988098;28;20493;-37
2023/12/27 09:50:19;;;;;;;2.08;1.80;;;;;;;18.67;69.29;101411.00;4974843;28;20103;-36
2023/12/27 09:52:46;;;;;;;2.70;1.83;;;;;;;18.65;69.31;101411.28;5003145;28;20416;-38
2023/12/27 09:55:11;;;;;;;2.38;1.80;;;;;;;18.65;69.16;101411.28;5007852;28;20029;-36
2023/12/27 09:57:37;;;;;;;5.13;1.80;;;;;;;18.65;69.32;101407.69;5006670;28;20034;-38
2023/12/27 10:00:05;;;;;;;2.17;1.88;;;;;;;18.64;69.42;101417.84;5007575;28;20064;-38
2023/12/27 10:02:34;;;;;;;2.63;1.75;;;;;;;18.63;69.45;101413.47;4984738;28;20088;-36
2023/12/27 10:05:06;;;;;;;2.17;1.75;;;;;;;18.60;69.63;101412.06;5005391;28;20038;-38
2023/12/27 10:07:32;;;;;;;2.15;1.70;;;;;;;18.62;69.47;101405.50;4993249;28;20377;-36
2023/12/27 10:09:58;;;;;;;2.00;1.80;;;;;;;18.60;69.86;101403.84;5004954;28;20057;-38
2023/12/27 10:12:24;;;;;;;3.45;1.80;;;;;;;18.58;70.01;101397.78;5007347;28;20478;-36
2023/12/27 10:14:51;;;;;;;3.08;1.80;;;;;;;18.57;69.87;101398.06;5007412;28;20279;-38
2023/12/27 10:17:17;;;;;;;3.25;1.73;;;;;;;18.55;69.96;101389.25;4998671;28;20490;-38
2023/12/27 10:19:44;;;;;;;4.45;1.80;;;;;;;18.56;70.02;101374.44;5002678;28;20108;-37
2023/12/27 10:22:12;;;;;;;2.00;1.75;;;;;;;18.53;70.09;101370.31;5003286;28;20030;-37
2023/12/27 10:24:38;;;;;;;1.75;1.65;;;;;;;18.52;70.20;101367.84;5005213;28;20108;-38
2023/12/27 10:27:04;;;;;;;3.38;2.00;;;;;;;18.52;70.19;101362.34;5006988;28;20426;-36
2023/12/27 10:29:32;;;;;;;4.68;2.20;;;;;;;18.51;70.42;101363.44;5002728;28;20025;-38
2023/12/27 10:32:00;;;;;;;3.80;1.90;;;;;;;18.51;70.56;101338.75;4991628;28;20454;-37
2023/12/27 10:34:26;;;;;;;2.70;2.05;;;;;;;18.49;70.36;101358.22;4997828;28;20069;-37
2023/12/27 10:36:52;;;;;;;2.92;1.83;;;;;;;18.49;70.71;101371.09;4994765;28;20220;-38
2023/12/27 10:39:18;;;;;;;3.22;1.80;;;;;;;18.47;70.42;101376.88;4997152;28;20021;-37
2023/12/27 10:41:43;;;;;;;2.75;1.90;;;;;;;18.46;70.53;101377.97;4996455;28;20056;-38
2023/12/27 10:44:11;;;;;;;3.05;2.08;;;;;;;18.45;70.89;101365.31;4997861;28;20465;-39
2023/12/27 10:46:38;;;;;;;10.50;2.42;;;;;;;18.48;71.43;101366.69;4993263;28;20041;-34
2023/12/27 10:49:04;;;;;;;7.20;2.25;;;;;;;18.52;71.99;101370.59;4998219;28;20081;-36
2023/12/27 10:51:30;;;;;;;6.72;2.00;;;;;;;18.57;72.15;101373.34;4995650;28;20076;-35
2023/12/27 10:54:00;;;;;;;4.15;2.13;;;;;;;18.60;72.27;101362.66;4996419;28;20616;-36
2023/12/27 10:56:25;;;;;;;7.45;2.10;;;;;;;18.65;72.48;101344.53;4991965;28;20255;-37
2023/12/27 10:58:52;;;;;;;5.38;1.92;;;;;;;18.69;72.38;101326.47;4992321;28;20285;-38
2023/12/27 11:01:18;;;;;;;4.47;1.75;;;;;;;18.73;72.49;101330.31;4996108;28;20038;-38
2023/12/27 11:03:48;;;;;;;2.88;1.70;;;;;;;18.75;72.67;101334.44;4993758;28;20029;-39
2023/12/27 11:06:14;;;;;;;6.78;2.17;;;;;;;18.78;72.46;101324.81;4996697;28;20037;-38
2023/12/27 11:08:39;;;;;;;2.10;1.50;;;;;;;18.80;72.14;101310.81;4963288;28;20019;-38
2023/12/27 11:11:05;;;;;;;4.03;1.90;;;;;;;18.85;72.24;101327.31;4963489;28;20126;-38
2023/12/27 11:13:31;;;;;;;4.88;2.10;;;;;;;18.84;72.28;101326.47;4994849;28;20029;-38
2023/12/27 11:15:57;;;;;;;3.53;1.80;;;;;;;18.87;72.34;101331.44;4996212;28;20038;-36